Terminal Aerodrome Forecast
Issued by NWS

Home | Current Version | Previous Version | Text Only | Print | Product List | Glossary On
Versions: 1 2 3 4 5 6 7 8 9 10 11 12 13 14 15 16 17 18 19 20 21 22 23 24 25 26 27
000
FTUS43 KSGF 041900 AAA
TAFBBG
TAF AMD
KBBG 041915Z 0419/0518 01013KT 1SM -SN BR BKN008 OVC015
      TEMPO 0419/0422 1/2SM SN OVC008
     FM042200 01010G15KT 1SM -SN VV004
     FM050000 01010KT 2SM -SN BR OVC006
     FM050200 02010KT 4SM -SN BR OVC015
     FM050500 03008KT P6SM OVC050
     FM050700 01007KT P6SM BKN080=

USA.gov is the U.S. government's official web portal to all federal, state and local government web resources and services.